Time,TemperatureF,DewpointF,PressureIn,WindDirection,WindDirectionDegrees,WindSpeedMPH,WindSpeedGustMPH,Humidity,HourlyPrecipIn,Conditions,Clouds,dailyrainin,SoftwareType,DateUTC
2013-05-05 00:03:00,55.0,40.0,30.14,ENE,76,0.0,-999.0,56,-99.99,,,-99.99,,2013-05-05 04:03:00,
2013-05-05 00:12:00,55.0,40.0,30.14,ENE,76,0.0,-999.0,56,-99.99,,,-99.99,,2013-05-05 04:12:00,
2013-05-05 00:23:00,54.0,40.0,30.14,ENE,76,0.0,-999.0,59,-99.99,,,-99.99,,2013-05-05 04:23:00,
2013-05-05 00:33:00,54.0,41.0,30.14,ENE,76,0.0,-999.0,61,-99.99,,,-99.99,,2013-05-05 04:33:00,
2013-05-05 00:43:00,54.0,41.0,30.14,ENE,76,0.0,-999.0,61,-99.99,,,-99.99,,2013-05-05 04:43:00,
2013-05-05 00:52:00,53.0,42.0,30.14,ENE,76,0.0,-999.0,65,-99.99,,,-99.99,,2013-05-05 04:52:00,
2013-05-05 01:02:00,53.0,42.0,30.14,ENE,76,0.0,-999.0,65,-99.99,,,-99.99,,2013-05-05 05:02:00,
2013-05-05 01:12:00,53.0,42.0,30.14,ENE,76,0.0,-999.0,65,-99.99,,,-99.99,,2013-05-05 05:12:00,
2013-05-05 01:22:00,53.0,42.0,30.14,ENE,76,0.0,-999.0,67,-99.99,,,-99.99,,2013-05-05 05:22:00,
2013-05-05 01:32:00,52.0,41.0,30.14,ENE,76,0.0,-999.0,67,-99.99,,,-99.99,,2013-05-05 05:32:00,
2013-05-05 01:42:00,52.0,41.0,30.14,ENE,76,0.0,-999.0,67,-99.99,,,-99.99,,2013-05-05 05:42:00,
2013-05-05 01:52:00,51.0,41.0,30.13,ENE,76,0.0,-999.0,68,-99.99,,,-99.99,,2013-05-05 05:52:00,
2013-05-05 02:02:00,51.0,41.0,30.13,ENE,76,0.0,-999.0,68,-99.99,,,-99.99,,2013-05-05 06:02:00,
2013-05-05 02:12:00,51.0,41.0,30.13,ENE,76,0.0,-999.0,68,-99.99,,,-99.99,,2013-05-05 06:12:00,
2013-05-05 02:22:00,51.0,41.0,30.12,ENE,76,0.0,-999.0,69,-99.99,,,-99.99,,2013-05-05 06:22:00,
2013-05-05 02:32:00,51.0,43.0,30.12,ENE,76,0.0,-999.0,74,-99.99,,,-99.99,,2013-05-05 06:32:00,
2013-05-05 02:42:00,51.0,43.0,30.12,ENE,76,0.0,-999.0,74,-99.99,,,-99.99,,2013-05-05 06:42:00,
2013-05-05 02:52:00,50.0,43.0,30.12,ENE,76,0.0,-999.0,78,-99.99,,,-99.99,,2013-05-05 06:52:00,
2013-05-05 03:01:00,50.0,45.0,30.12,ENE,76,0.0,-999.0,82,-99.99,,,-99.99,,2013-05-05 07:01:00,
2013-05-05 03:11:00,50.0,45.0,30.12,ENE,76,0.0,-999.0,82,-99.99,,,-99.99,,2013-05-05 07:11:00,
2013-05-05 03:22:00,49.0,42.0,30.11,ENE,76,0.0,-999.0,78,-99.99,,,-99.99,,2013-05-05 07:22:00,
2013-05-05 03:32:00,49.0,43.0,30.11,ENE,76,0.0,-999.0,79,-99.99,,,-99.99,,2013-05-05 07:32:00,
2013-05-05 03:42:00,49.0,43.0,30.11,ENE,76,0.0,-999.0,79,-99.99,,,-99.99,,2013-05-05 07:42:00,
2013-05-05 03:52:00,48.0,41.0,30.12,ENE,76,1.0,-999.0,78,-99.99,,,-99.99,,2013-05-05 07:52:00,
2013-05-05 04:02:00,48.0,41.0,30.12,ENE,76,0.0,-999.0,78,-99.99,,,-99.99,,2013-05-05 08:02:00,
2013-05-05 04:11:00,48.0,41.0,30.12,ENE,76,0.0,-999.0,78,-99.99,,,-99.99,,2013-05-05 08:11:00,
2013-05-05 04:22:00,47.0,41.0,30.12,ENE,76,0.0,-999.0,79,-99.99,,,-99.99,,2013-05-05 08:22:00,
2013-05-05 04:32:00,47.0,42.0,30.12,ENE,76,0.0,-999.0,82,-99.99,,,-99.99,,2013-05-05 08:32:00,
2013-05-05 04:42:00,47.0,42.0,30.12,ENE,76,0.0,-999.0,82,-99.99,,,-99.99,,2013-05-05 08:42:00,
2013-05-05 04:53:00,47.0,42.0,30.12,ENE,76,0.0,-999.0,83,-99.99,,,-99.99,,2013-05-05 08:53:00,
2013-05-05 05:01:00,47.0,42.0,30.12,ENE,76,0.0,-999.0,83,-99.99,,,-99.99,,2013-05-05 09:01:00,
2013-05-05 05:11:00,47.0,42.0,30.12,ENE,76,0.0,-999.0,83,-99.99,,,-99.99,,2013-05-05 09:11:00,
2013-05-05 05:21:00,47.0,42.0,30.12,ENE,76,0.0,-999.0,82,-99.99,,,-99.99,,2013-05-05 09:21:00,
2013-05-05 05:33:00,48.0,42.0,30.12,ENE,76,0.0,-999.0,81,-99.99,,,-99.99,,2013-05-05 09:33:00,
2013-05-05 05:42:00,48.0,42.0,30.12,ENE,76,0.0,-999.0,81,-99.99,,,-99.99,,2013-05-05 09:42:00,
2013-05-05 05:52:00,47.0,41.0,30.12,ENE,76,0.0,-999.0,81,-99.99,,,-99.99,,2013-05-05 09:52:00,
2013-05-05 06:03:00,47.0,42.0,30.13,ENE,76,0.0,-999.0,84,-99.99,,,-99.99,,2013-05-05 10:03:00,
2013-05-05 06:12:00,47.0,42.0,30.13,ENE,76,0.0,-999.0,84,-99.99,,,-99.99,,2013-05-05 10:12:00,
2013-05-05 06:22:00,46.0,42.0,30.14,ENE,76,0.0,-999.0,85,-99.99,,,-99.99,,2013-05-05 10:22:00,
2013-05-05 06:32:00,46.0,41.0,30.14,ENE,76,0.0,-999.0,84,-99.99,,,-99.99,,2013-05-05 10:32:00,
2013-05-05 06:42:00,46.0,41.0,30.14,ENE,76,0.0,-999.0,84,-99.99,,,-99.99,,2013-05-05 10:42:00,
2013-05-05 06:52:00,46.0,42.0,30.15,NW,313,0.0,-999.0,86,-99.99,,,-99.99,,2013-05-05 10:52:00,
2013-05-05 07:02:00,47.0,43.0,30.15,NW,313,0.0,-999.0,86,-99.99,,,-99.99,,2013-05-05 11:02:00,
2013-05-05 07:12:00,47.0,43.0,30.15,NW,313,0.0,-999.0,86,-99.99,,,-99.99,,2013-05-05 11:12:00,
2013-05-05 07:22:00,48.0,43.0,30.16,NW,313,0.0,-999.0,84,-99.99,,,-99.99,,2013-05-05 11:22:00,
2013-05-05 07:32:00,50.0,44.0,30.16,NW,313,0.0,-999.0,80,-99.99,,,-99.99,,2013-05-05 11:32:00,
2013-05-05 07:42:00,50.0,44.0,30.16,NW,313,0.0,-999.0,80,-99.99,,,-99.99,,2013-05-05 11:42:00,
2013-05-05 07:52:00,53.0,43.0,30.16,WNW,282,1.0,-999.0,70,-99.99,,,-99.99,,2013-05-05 11:52:00,
2013-05-05 08:02:00,56.0,44.0,30.16,SW,229,1.0,-999.0,65,-99.99,,,-99.99,,2013-05-05 12:02:00,
2013-05-05 08:11:00,56.0,44.0,30.16,SW,229,1.0,-999.0,65,-99.99,,,-99.99,,2013-05-05 12:11:00,
2013-05-05 08:22:00,57.0,44.0,30.17,SW,229,2.0,-999.0,62,-99.99,,,-99.99,,2013-05-05 12:22:00,
2013-05-05 08:32:00,58.0,45.0,30.16,SW,229,2.0,-999.0,61,-99.99,,,-99.99,,2013-05-05 12:32:00,
2013-05-05 08:42:00,58.0,45.0,30.16,SW,229,2.0,-999.0,61,-99.99,,,-99.99,,2013-05-05 12:42:00,
2013-05-05 08:52:00,60.0,46.0,30.17,SSW,200,2.0,-999.0,59,-99.99,,,-99.99,,2013-05-05 12:52:00,
2013-05-05 09:01:00,60.0,46.0,30.18,SSW,201,2.0,-999.0,59,-99.99,,,-99.99,,2013-05-05 13:01:00,
2013-05-05 09:11:00,60.0,46.0,30.18,SSW,201,2.0,-999.0,59,-99.99,,,-99.99,,2013-05-05 13:11:00,
2013-05-05 09:21:00,62.0,47.0,30.18,SSW,193,2.0,-999.0,59,-99.99,,,-99.99,,2013-05-05 13:21:00,
2013-05-05 09:32:00,64.0,47.0,30.18,SSW,198,2.0,-999.0,53,-99.99,,,-99.99,,2013-05-05 13:32:00,
2013-05-05 09:42:00,64.0,47.0,30.18,SSW,198,2.0,-999.0,53,-99.99,,,-99.99,,2013-05-05 13:42:00,
2013-05-05 09:52:00,65.0,44.0,30.17,SSW,199,2.0,-999.0,47,-99.99,,,-99.99,,2013-05-05 13:52:00,
2013-05-05 10:02:00,66.0,45.0,30.17,SSW,200,2.0,-999.0,46,-99.99,,,-99.99,,2013-05-05 14:02:00,
2013-05-05 10:11:00,66.0,45.0,30.17,SSW,200,2.0,-999.0,46,-99.99,,,-99.99,,2013-05-05 14:11:00,
2013-05-05 10:21:00,67.0,45.0,30.17,SSW,213,2.0,-999.0,45,-99.99,,,-99.99,,2013-05-05 14:21:00,
2013-05-05 10:32:00,68.0,45.0,30.17,SSW,213,1.0,-999.0,44,-99.99,,,-99.99,,2013-05-05 14:32:00,
2013-05-05 10:42:00,68.0,45.0,30.17,SSW,213,1.0,-999.0,44,-99.99,,,-99.99,,2013-05-05 14:42:00,
2013-05-05 10:52:00,69.0,44.0,30.17,SW,217,1.0,-999.0,41,-99.99,,,-99.99,,2013-05-05 14:52:00,
2013-05-05 11:02:00,69.0,45.0,30.16,WSW,240,1.0,-999.0,42,-99.99,,,-99.99,,2013-05-05 15:02:00,
2013-05-05 11:11:00,69.0,45.0,30.16,WSW,240,1.0,-999.0,42,-99.99,,,-99.99,,2013-05-05 15:11:00,
2013-05-05 11:21:00,71.0,47.0,30.17,WSW,240,0.0,-999.0,43,-99.99,,,-99.99,,2013-05-05 15:21:00,
2013-05-05 11:33:00,71.0,45.0,30.16,WSW,240,2.0,-999.0,39,-99.99,,,-99.99,,2013-05-05 15:33:00,
2013-05-05 11:43:00,71.0,45.0,30.16,WSW,240,2.0,-999.0,39,-99.99,,,-99.99,,2013-05-05 15:43:00,
2013-05-05 11:53:00,72.0,45.0,30.16,SSE,162,1.0,-999.0,38,-99.99,,,-99.99,,2013-05-05 15:53:00,
2013-05-05 12:03:00,71.0,45.0,30.16,SE,136,1.0,-999.0,39,-99.99,,,-99.99,,2013-05-05 16:03:00,
2013-05-05 12:12:00,71.0,45.0,30.16,SE,136,1.0,-999.0,39,-99.99,,,-99.99,,2013-05-05 16:12:00,
2013-05-05 12:23:00,73.0,44.0,30.15,ESE,111,1.0,-999.0,36,-99.99,,,-99.99,,2013-05-05 16:23:00,
2013-05-05 12:32:00,73.0,44.0,30.15,East,83,2.0,-999.0,35,-99.99,,,-99.99,,2013-05-05 16:32:00,
2013-05-05 12:42:00,73.0,44.0,30.15,East,83,2.0,-999.0,35,-99.99,,,-99.99,,2013-05-05 16:42:00,
2013-05-05 12:52:00,72.0,41.0,30.14,ENE,74,4.0,-999.0,33,-99.99,,,-99.99,,2013-05-05 16:52:00,
2013-05-05 13:02:00,72.0,44.0,30.14,SSE,165,3.0,-999.0,36,-99.99,,,-99.99,,2013-05-05 17:02:00,
2013-05-05 13:12:00,72.0,44.0,30.14,SSE,165,3.0,-999.0,36,-99.99,,,-99.99,,2013-05-05 17:12:00,
2013-05-05 13:23:00,73.0,44.0,30.14,SE,145,2.0,-999.0,35,-99.99,,,-99.99,,2013-05-05 17:23:00,
2013-05-05 13:32:00,73.0,43.0,30.14,SSE,153,4.0,-999.0,34,-99.99,,,-99.99,,2013-05-05 17:32:00,
2013-05-05 13:42:00,73.0,43.0,30.14,SSE,153,4.0,-999.0,34,-99.99,,,-99.99,,2013-05-05 17:42:00,
2013-05-05 13:52:00,73.0,40.0,30.12,East,99,3.0,-999.0,30,-99.99,,,-99.99,,2013-05-05 17:52:00,
2013-05-05 14:01:00,73.0,40.0,30.12,ENE,73,3.0,-999.0,30,-99.99,,,-99.99,,2013-05-05 18:01:00,
2013-05-05 14:12:00,73.0,40.0,30.12,ENE,73,3.0,-999.0,30,-99.99,,,-99.99,,2013-05-05 18:12:00,
2013-05-05 14:21:00,73.0,41.0,30.12,SE,144,5.0,-999.0,32,-99.99,,,-99.99,,2013-05-05 18:21:00,
2013-05-05 14:32:00,73.0,41.0,30.11,ESE,117,4.0,-999.0,32,-99.99,,,-99.99,,2013-05-05 18:32:00,
2013-05-05 14:42:00,73.0,41.0,30.11,ESE,117,4.0,-999.0,32,-99.99,,,-99.99,,2013-05-05 18:42:00,
2013-05-05 14:52:00,74.0,41.0,30.11,South,188,7.0,-999.0,30,-99.99,,,-99.99,,2013-05-05 18:52:00,
2013-05-05 15:01:00,74.0,40.0,30.11,East,101,5.0,-999.0,29,-99.99,,,-99.99,,2013-05-05 19:01:00,
2013-05-05 15:12:00,74.0,40.0,30.11,East,101,5.0,-999.0,29,-99.99,,,-99.99,,2013-05-05 19:12:00,
2013-05-05 15:21:00,74.0,37.0,30.11,East,94,6.0,-999.0,26,-99.99,,,-99.99,,2013-05-05 19:21:00,
2013-05-05 15:32:00,74.0,39.0,30.10,ESE,107,6.0,-999.0,28,-99.99,,,-99.99,,2013-05-05 19:32:00,
2013-05-05 15:42:00,74.0,39.0,30.10,ESE,107,6.0,-999.0,28,-99.99,,,-99.99,,2013-05-05 19:42:00,
2013-05-05 15:52:00,74.0,38.0,30.09,SE,126,4.0,-999.0,27,-99.99,,,-99.99,,2013-05-05 19:52:00,
2013-05-05 16:01:00,74.0,37.0,30.09,SSE,168,7.0,-999.0,26,-99.99,,,-99.99,,2013-05-05 20:01:00,
2013-05-05 16:11:00,74.0,37.0,30.09,SSE,168,7.0,-999.0,26,-99.99,,,-99.99,,2013-05-05 20:11:00,
2013-05-05 16:21:00,74.0,40.0,30.08,ESE,107,3.0,-999.0,29,-99.99,,,-99.99,,2013-05-05 20:21:00,
2013-05-05 16:32:00,74.0,41.0,30.08,ESE,113,4.0,-999.0,30,-99.99,,,-99.99,,2013-05-05 20:32:00,
2013-05-05 16:42:00,74.0,41.0,30.08,ESE,113,4.0,-999.0,30,-99.99,,,-99.99,,2013-05-05 20:42:00,
2013-05-05 16:52:00,74.0,46.0,30.07,NE,34,3.0,-999.0,37,-99.99,,,-99.99,,2013-05-05 20:52:00,
2013-05-05 17:02:00,73.0,47.0,30.07,NE,43,3.0,-999.0,39,-99.99,,,-99.99,,2013-05-05 21:02:00,
2013-05-05 17:11:00,73.0,47.0,30.07,NE,43,3.0,-999.0,39,-99.99,,,-99.99,,2013-05-05 21:11:00,
2013-05-05 17:21:00,73.0,47.0,30.06,ENE,76,4.0,-999.0,39,-99.99,,,-99.99,,2013-05-05 21:21:00,
2013-05-05 17:33:00,72.0,46.0,30.06,NE,34,4.0,-999.0,39,-99.99,,,-99.99,,2013-05-05 21:33:00,
2013-05-05 17:42:00,72.0,46.0,30.06,NE,34,4.0,-999.0,39,-99.99,,,-99.99,,2013-05-05 21:42:00,
2013-05-05 17:53:00,72.0,47.0,30.06,NNE,32,4.0,-999.0,41,-99.99,,,-99.99,,2013-05-05 21:53:00,
2013-05-05 18:03:00,71.0,45.0,30.06,NNE,31,7.0,-999.0,40,-99.99,,,-99.99,,2013-05-05 22:03:00,
2013-05-05 18:12:00,71.0,45.0,30.06,NNE,31,7.0,-999.0,40,-99.99,,,-99.99,,2013-05-05 22:12:00,
2013-05-05 18:22:00,71.0,45.0,30.06,NNE,28,5.0,-999.0,40,-99.99,,,-99.99,,2013-05-05 22:22:00,
2013-05-05 18:33:00,70.0,46.0,30.06,NNE,27,6.0,-999.0,42,-99.99,,,-99.99,,2013-05-05 22:33:00,
2013-05-05 18:42:00,70.0,46.0,30.06,NNE,27,6.0,-999.0,42,-99.99,,,-99.99,,2013-05-05 22:42:00,
2013-05-05 18:52:00,70.0,46.0,30.06,NNE,20,5.0,-999.0,43,-99.99,,,-99.99,,2013-05-05 22:52:00,
2013-05-05 19:02:00,69.0,46.0,30.06,NNE,26,6.0,-999.0,44,-99.99,,,-99.99,,2013-05-05 23:02:00,
2013-05-05 19:12:00,69.0,46.0,30.06,NNE,26,6.0,-999.0,44,-99.99,,,-99.99,,2013-05-05 23:12:00,
2013-05-05 19:22:00,69.0,46.0,30.06,NNE,28,3.0,-999.0,44,-99.99,,,-99.99,,2013-05-05 23:22:00,
2013-05-05 19:32:00,68.0,45.0,30.06,NNE,30,4.0,-999.0,43,-99.99,,,-99.99,,2013-05-05 23:32:00,
2013-05-05 19:42:00,68.0,45.0,30.06,NNE,30,4.0,-999.0,43,-99.99,,,-99.99,,2013-05-05 23:42:00,
2013-05-05 19:52:00,67.0,44.0,30.06,NNE,26,3.0,-999.0,44,-99.99,,,-99.99,,2013-05-05 23:52:00,
2013-05-05 20:01:00,67.0,44.0,30.06,NE,39,3.0,-999.0,44,-99.99,,,-99.99,,2013-05-06 00:01:00,
2013-05-05 20:11:00,67.0,44.0,30.06,NE,39,3.0,-999.0,44,-99.99,,,-99.99,,2013-05-06 00:11:00,
2013-05-05 20:22:00,66.0,44.0,30.06,NE,35,2.0,-999.0,45,-99.99,,,-99.99,,2013-05-06 00:22:00,
2013-05-05 20:32:00,65.0,44.0,30.06,NE,37,1.0,-999.0,47,-99.99,,,-99.99,,2013-05-06 00:32:00,
2013-05-05 20:42:00,65.0,44.0,30.06,NE,37,1.0,-999.0,47,-99.99,,,-99.99,,2013-05-06 00:42:00,
2013-05-05 20:51:00,64.0,44.0,30.06,NE,37,0.0,-999.0,49,-99.99,,,-99.99,,2013-05-06 00:51:00,
2013-05-05 21:01:00,63.0,45.0,30.06,NE,37,1.0,-999.0,51,-99.99,,,-99.99,,2013-05-06 01:01:00,
2013-05-05 21:11:00,63.0,45.0,30.06,NE,37,1.0,-999.0,51,-99.99,,,-99.99,,2013-05-06 01:11:00,
2013-05-05 21:21:00,62.0,45.0,30.07,NE,37,0.0,-999.0,53,-99.99,,,-99.99,,2013-05-06 01:21:00,
2013-05-05 21:32:00,61.0,45.0,30.07,NE,37,0.0,-999.0,55,-99.99,,,-99.99,,2013-05-06 01:32:00,
2013-05-05 21:42:00,61.0,45.0,30.07,NE,37,0.0,-999.0,55,-99.99,,,-99.99,,2013-05-06 01:42:00,
2013-05-05 21:52:00,61.0,45.0,30.07,NE,37,0.0,-999.0,56,-99.99,,,-99.99,,2013-05-06 01:52:00,
2013-05-05 22:02:00,60.0,43.0,30.07,NE,37,0.0,-999.0,54,-99.99,,,-99.99,,2013-05-06 02:02:00,
2013-05-05 22:12:00,60.0,43.0,30.07,NE,37,0.0,-999.0,54,-99.99,,,-99.99,,2013-05-06 02:12:00,
2013-05-05 22:21:00,60.0,43.0,30.07,NE,37,0.0,-999.0,54,-99.99,,,-99.99,,2013-05-06 02:21:00,
2013-05-05 22:32:00,60.0,42.0,30.07,NE,37,0.0,-999.0,52,-99.99,,,-99.99,,2013-05-06 02:32:00,
2013-05-05 22:42:00,60.0,42.0,30.07,NE,37,0.0,-999.0,52,-99.99,,,-99.99,,2013-05-06 02:42:00,
2013-05-05 22:51:00,60.0,42.0,30.07,NE,37,0.0,-999.0,51,-99.99,,,-99.99,,2013-05-06 02:51:00,
2013-05-05 23:02:00,59.0,42.0,30.07,NE,38,1.0,-999.0,54,-99.99,,,-99.99,,2013-05-06 03:02:00,
2013-05-05 23:11:00,59.0,42.0,30.07,NE,38,1.0,-999.0,54,-99.99,,,-99.99,,2013-05-06 03:11:00,
2013-05-05 23:22:00,58.0,42.0,30.07,NE,38,0.0,-999.0,56,-99.99,,,-99.99,,2013-05-06 03:22:00,
2013-05-05 23:33:00,58.0,43.0,30.07,NE,38,0.0,-999.0,58,-99.99,,,-99.99,,2013-05-06 03:33:00,
2013-05-05 23:42:00,58.0,43.0,30.07,NE,38,0.0,-999.0,58,-99.99,,,-99.99,,2013-05-06 03:42:00,
2013-05-05 23:52:00,57.0,43.0,30.07,NE,38,0.0,-999.0,60,-99.99,,,-99.99,,2013-05-06 03:52:00,